createdAt,value
2023-06-06T00:14:08.868Z,43.36
2023-06-06T00:29:11.357Z,43.82
2023-06-06T00:44:14.092Z,44.19
2023-06-06T00:59:18.875Z,44.56
2023-06-06T01:14:36.294Z,44.80
2023-06-06T01:29:53.505Z,45.35
2023-06-06T01:44:59.431Z,45.53
2023-06-06T02:00:09.485Z,45.60
2023-06-06T02:15:14.201Z,45.75
2023-06-06T02:30:31.471Z,46.24
2023-06-06T02:45:35.722Z,46.62
2023-06-06T03:00:52.904Z,47.52
2023-06-06T03:21:15.160Z,47.85
2023-06-06T03:36:34.188Z,48.41
2023-06-06T03:51:51.292Z,49.09
2023-06-06T04:06:53.920Z,49.42
2023-06-06T04:21:57.138Z,49.33
2023-06-06T04:37:06.280Z,48.68
2023-06-06T04:52:13.075Z,48.72
2023-06-06T05:07:15.612Z,48.67
2023-06-06T05:22:18.189Z,48.22
2023-06-06T05:37:20.803Z,47.78
2023-06-06T05:52:23.453Z,47.34
2023-06-06T06:07:40.833Z,46.40
2023-06-06T06:22:57.981Z,45.45
2023-06-06T06:38:00.417Z,45.46
2023-06-06T06:53:17.866Z,44.42
2023-06-06T07:08:35.165Z,44.21
2023-06-06T07:23:38.037Z,43.84
2023-06-06T07:38:40.900Z,43.78
2023-06-06T07:53:47.632Z,43.59
2023-06-06T08:08:52.076Z,43.27
2023-06-06T08:23:56.617Z,41.37
2023-06-06T08:38:59.212Z,40.02
2023-06-06T08:54:19.957Z,38.50
2023-06-06T09:09:23.776Z,36.48
2023-06-06T09:24:30.437Z,34.85
2023-06-06T09:40:18.367Z,32.83
2023-06-06T09:55:24.665Z,32.17
2023-06-06T10:10:28.081Z,32.15
2023-06-06T10:32:04.619Z,31.94
2023-06-06T10:47:29.697Z,31.73
2023-06-06T11:02:47.581Z,31.44
2023-06-06T11:17:50.853Z,30.92
2023-06-06T11:32:54.393Z,30.71
2023-06-06T11:48:10.330Z,30.41
2023-06-06T12:03:20.109Z,29.96
2023-06-06T12:18:22.835Z,29.65
2023-06-06T12:33:44.943Z,29.09
2023-06-06T12:48:47.499Z,29.45
2023-06-06T13:04:05.554Z,30.14
2023-06-06T13:19:12.228Z,29.82
2023-06-06T13:34:15.161Z,30.08
2023-06-06T13:49:17.823Z,29.08
2023-06-06T14:04:21.489Z,29.54
2023-06-06T14:19:43.438Z,29.84
2023-06-06T14:34:49.315Z,30.12
2023-06-06T14:49:52.109Z,30.16
2023-06-06T15:05:09.782Z,30.84
2023-06-06T15:20:13.075Z,31.13
2023-06-06T15:35:15.973Z,31.48
2023-06-06T15:50:18.809Z,31.42
2023-06-06T16:05:22.117Z,31.38
2023-06-06T16:20:24.933Z,31.48
2023-06-06T16:35:42.199Z,30.84
2023-06-06T16:54:31.967Z,31.67
2023-06-06T17:09:37.167Z,32.16
2023-06-06T17:24:57.673Z,32.80
2023-06-06T17:40:02.616Z,33.11
2023-06-06T17:55:23.107Z,34.11
2023-06-06T18:10:41.269Z,34.99
2023-06-06T18:25:46.036Z,35.53
2023-06-06T18:40:51.879Z,36.02
2023-06-06T18:55:56.659Z,36.54
2023-06-06T19:11:14.678Z,37.13
2023-06-06T19:26:33.389Z,37.35
2023-06-06T19:57:23.363Z,39.20
2023-06-06T20:12:42.156Z,39.35
2023-06-06T20:27:59.925Z,40.21
2023-06-06T20:43:04.396Z,40.80
2023-06-06T21:13:27.725Z,41.96
2023-06-06T21:28:34.658Z,42.47
2023-06-06T21:43:40.013Z,43.39
2023-06-06T21:58:43.834Z,44.34
2023-06-06T22:13:47.795Z,44.94
2023-06-06T22:29:08.470Z,45.50
2023-06-06T22:44:17.237Z,45.93
2023-06-06T22:59:22.151Z,46.46
2023-06-06T23:14:27.587Z,46.75
2023-06-06T23:29:32.574Z,47.39
2023-06-06T23:44:36.880Z,48.00
